createdAt,value
2018-07-12T00:00:07.019Z,15.90
2018-07-12T00:01:06.897Z,10.30
2018-07-12T00:02:06.804Z,10.00
2018-07-12T00:03:06.717Z,9.60
2018-07-12T00:04:06.618Z,10.30
2018-07-12T00:05:06.560Z,9.70
2018-07-12T00:06:06.434Z,12.30
2018-07-12T00:07:06.448Z,9.80
2018-07-12T00:08:06.247Z,10.30
2018-07-12T00:09:06.157Z,10.50
2018-07-12T00:10:06.096Z,10.50
2018-07-12T00:11:05.970Z,9.20
2018-07-12T00:12:05.878Z,9.60
2018-07-12T00:13:05.784Z,11.10
2018-07-12T00:14:05.786Z,10.10
2018-07-12T00:15:05.630Z,10.00
2018-07-12T00:16:05.504Z,10.80
2018-07-12T00:17:05.415Z,14.90
2018-07-12T00:18:05.321Z,12.00
2018-07-12T00:19:05.227Z,10.50
2018-07-12T00:20:05.167Z,12.70
2018-07-12T00:21:05.134Z,13.40
2018-07-12T00:22:04.953Z,11.00
2018-07-12T00:23:04.860Z,10.50
2018-07-12T00:24:04.767Z,10.70
2018-07-12T00:25:04.708Z,10.50
2018-07-12T00:26:04.579Z,9.10
2018-07-12T00:27:04.489Z,9.30
2018-07-12T00:28:04.505Z,8.30
2018-07-12T00:29:04.303Z,8.50
2018-07-12T00:30:04.249Z,8.60
2018-07-12T00:31:04.119Z,8.00
2018-07-12T00:32:04.028Z,8.20
2018-07-12T00:33:03.934Z,8.10
2018-07-12T00:34:03.840Z,7.60
2018-07-12T00:35:03.872Z,8.30
2018-07-12T00:36:03.655Z,8.20
2018-07-12T00:37:03.567Z,8.20
2018-07-12T00:38:03.474Z,7.40
2018-07-12T00:39:03.382Z,8.00
2018-07-12T00:40:03.317Z,9.60
2018-07-12T00:41:03.197Z,8.80
2018-07-12T00:42:03.199Z,8.30
2018-07-12T00:43:03.009Z,8.40
2018-07-12T00:44:02.920Z,8.00
2018-07-12T00:45:02.835Z,8.40
2018-07-12T00:46:02.765Z,8.10
2018-07-12T00:47:02.644Z,9.30
2018-07-12T00:48:02.552Z,7.90
2018-07-12T00:49:02.551Z,9.90
2018-07-12T00:50:02.370Z,8.80
2018-07-12T00:51:02.306Z,11.60
2018-07-12T00:52:02.185Z,13.10
2018-07-12T00:53:02.096Z,11.70
2018-07-12T00:54:02.000Z,10.90
2018-07-12T00:55:01.906Z,8.90
2018-07-12T00:56:01.936Z,8.50
2018-07-12T00:57:01.722Z,8.80
2018-07-12T00:58:01.631Z,8.90
2018-07-12T00:59:01.537Z,12.10
2018-07-12T01:00:04.710Z,9.20
2018-07-12T01:01:01.382Z,9.30
2018-07-12T01:02:01.260Z,10.90
2018-07-12T01:03:01.260Z,9.70
2018-07-12T01:04:01.076Z,9.60
2018-07-12T01:05:00.983Z,9.40
2018-07-12T01:06:00.924Z,8.70
2018-07-12T01:07:00.797Z,8.90
2018-07-12T01:08:00.735Z,10.90
2018-07-12T01:09:00.613Z,9.80
2018-07-12T01:10:00.617Z,8.50
2018-07-12T01:11:00.461Z,10.10
2018-07-12T01:12:00.344Z,8.80
2018-07-12T01:13:00.245Z,8.80
2018-07-12T01:14:00.154Z,9.20
2018-07-12T01:15:00.067Z,9.50
2018-07-12T01:16:00.014Z,8.90
2018-07-12T01:16:59.971Z,9.00
2018-07-12T01:17:59.790Z,8.40
2018-07-12T01:18:59.690Z,9.00
2018-07-12T01:19:59.603Z,9.00
2018-07-12T01:20:59.539Z,8.40
2018-07-12T01:21:59.414Z,8.30
2018-07-12T01:22:59.324Z,8.90
2018-07-12T01:23:59.240Z,9.10
2018-07-12T01:24:59.137Z,9.10
2018-07-12T01:25:59.084Z,10.00
2018-07-12T01:26:58.954Z,9.70
2018-07-12T01:27:58.862Z,10.00
2018-07-12T01:28:58.770Z,9.70
2018-07-12T01:29:58.678Z,10.10
2018-07-12T01:30:58.618Z,10.40
2018-07-12T01:31:58.495Z,9.90
2018-07-12T01:32:58.403Z,9.90
2018-07-12T01:33:58.312Z,10.90
2018-07-12T01:34:58.216Z,10.30
2018-07-12T01:35:58.162Z,10.40
2018-07-12T01:36:58.034Z,11.60
2018-07-12T01:37:57.941Z,11.40
2018-07-12T01:38:57.847Z,10.80
2018-07-12T01:39:57.761Z,11.90
2018-07-12T01:40:57.700Z,12.30
2018-07-12T01:41:57.572Z,11.80
2018-07-12T01:42:57.478Z,12.20
2018-07-12T01:43:57.386Z,12.50
2018-07-12T01:44:57.294Z,13.30
2018-07-12T01:45:57.238Z,14.90
2018-07-12T01:46:57.111Z,15.30
2018-07-12T01:47:57.019Z,16.00
2018-07-12T01:48:56.926Z,16.10
2018-07-12T01:49:56.831Z,16.50
2018-07-12T01:50:56.773Z,16.60
2018-07-12T01:51:56.647Z,17.50
2018-07-12T01:52:56.552Z,17.80
2018-07-12T01:53:56.462Z,17.00
2018-07-12T01:54:56.371Z,17.60
2018-07-12T01:55:56.311Z,17.00
2018-07-12T01:56:56.182Z,17.30
2018-07-12T01:57:56.094Z,17.50
2018-07-12T01:58:56.000Z,14.90
2018-07-12T01:59:55.908Z,15.90
2018-07-12T02:00:55.848Z,14.00
2018-07-12T02:01:55.724Z,14.40
2018-07-12T02:02:55.631Z,13.80
2018-07-12T02:03:55.538Z,13.80
2018-07-12T02:04:55.444Z,13.80
2018-07-12T02:05:55.384Z,11.00
2018-07-12T02:06:55.259Z,14.50
2018-07-12T02:07:55.169Z,15.00
2018-07-12T02:08:55.080Z,17.60
2018-07-12T02:09:54.985Z,16.90
2018-07-12T02:10:54.921Z,16.10
2018-07-12T02:11:54.799Z,15.00
2018-07-12T02:12:54.708Z,16.20
2018-07-12T02:13:54.616Z,16.40
2018-07-12T02:14:54.523Z,16.90
2018-07-12T02:15:54.432Z,17.60
2018-07-12T02:16:54.422Z,18.50
2018-07-12T02:17:54.248Z,19.70
2018-07-12T02:18:54.152Z,17.20
2018-07-12T02:19:54.062Z,16.40
2018-07-12T02:20:53.969Z,15.80
2018-07-12T02:21:53.910Z,16.20
2018-07-12T02:22:53.781Z,17.00
2018-07-12T02:23:53.690Z,15.40
2018-07-12T02:24:53.598Z,14.70
2018-07-12T02:25:53.505Z,15.70
2018-07-12T02:26:53.447Z,14.40
2018-07-12T02:27:53.321Z,15.20
2018-07-12T02:28:53.231Z,15.80
2018-07-12T02:29:53.136Z,15.40
2018-07-12T02:30:53.044Z,15.80
2018-07-12T02:31:52.978Z,16.50
2018-07-12T02:32:52.857Z,16.80
2018-07-12T02:33:52.764Z,16.70
2018-07-12T02:34:52.670Z,16.40
2018-07-12T02:35:52.582Z,15.50
2018-07-12T02:36:52.519Z,16.10
2018-07-12T02:37:52.396Z,16.60
2018-07-12T02:38:52.301Z,16.00
2018-07-12T02:39:52.211Z,15.60
2018-07-12T02:40:52.118Z,15.20
2018-07-12T02:41:52.055Z,16.60
2018-07-12T02:42:51.933Z,15.20
2018-07-12T02:43:51.837Z,15.80
2018-07-12T02:44:51.746Z,16.50
2018-07-12T02:45:51.659Z,16.60
2018-07-12T02:46:51.591Z,15.80
2018-07-12T02:47:51.473Z,16.70
2018-07-12T02:48:51.384Z,17.50
2018-07-12T02:49:51.284Z,18.40
2018-07-12T02:50:51.193Z,16.00
2018-07-12T02:51:51.128Z,14.20
2018-07-12T02:52:51.008Z,13.90
2018-07-12T02:53:50.921Z,15.70
2018-07-12T02:54:50.916Z,15.90
2018-07-12T02:55:50.735Z,14.50
2018-07-12T02:56:50.666Z,14.70
2018-07-12T02:57:50.545Z,14.90
2018-07-12T02:58:50.450Z,13.70
2018-07-12T02:59:50.373Z,14.20
2018-07-12T03:00:50.266Z,13.70
2018-07-12T03:01:50.208Z,13.80
2018-07-12T03:02:50.083Z,14.30
2018-07-12T03:03:49.988Z,14.30
2018-07-12T03:04:49.896Z,14.80
2018-07-12T03:05:49.805Z,15.40
2018-07-12T03:06:49.744Z,14.90
2018-07-12T03:07:49.618Z,15.80
2018-07-12T03:08:49.621Z,19.70
2018-07-12T03:09:49.438Z,15.70
2018-07-12T03:10:49.346Z,15.00
2018-07-12T03:11:49.285Z,14.80
2018-07-12T03:12:49.161Z,13.60
2018-07-12T03:13:49.064Z,13.20
2018-07-12T03:14:48.972Z,11.90
2018-07-12T03:15:48.973Z,11.90
2018-07-12T03:16:48.819Z,13.30
2018-07-12T03:17:48.699Z,13.60
2018-07-12T03:18:48.603Z,13.90
2018-07-12T03:19:48.514Z,13.80
2018-07-12T03:20:48.421Z,13.60
2018-07-12T03:21:48.360Z,13.20
2018-07-12T03:22:48.327Z,13.80
2018-07-12T03:23:48.140Z,13.20
2018-07-12T03:24:48.048Z,13.40
2018-07-12T03:25:47.959Z,13.60
2018-07-12T03:26:47.899Z,14.40
2018-07-12T03:27:47.771Z,14.80
2018-07-12T03:28:47.683Z,13.60
2018-07-12T03:29:47.683Z,13.80
2018-07-12T03:30:47.493Z,13.20
2018-07-12T03:31:47.436Z,13.50
2018-07-12T03:32:47.313Z,14.40
2018-07-12T03:33:47.221Z,14.60
2018-07-12T03:34:47.132Z,14.40
2018-07-12T03:35:47.036Z,15.50
2018-07-12T03:36:47.062Z,13.90
2018-07-12T03:37:46.849Z,14.90
2018-07-12T03:38:46.761Z,13.90
2018-07-12T03:39:46.667Z,13.00
2018-07-12T03:40:46.577Z,13.10
2018-07-12T03:41:46.513Z,13.50
2018-07-12T03:42:46.390Z,14.40
2018-07-12T03:43:46.389Z,14.10
2018-07-12T03:44:46.207Z,14.30
2018-07-12T03:45:46.113Z,14.50
2018-07-12T03:46:46.024Z,15.70
2018-07-12T03:47:45.963Z,16.00
2018-07-12T03:48:45.835Z,16.10
2018-07-12T03:49:45.746Z,14.80
2018-07-12T03:50:45.742Z,17.10
2018-07-12T03:51:45.565Z,15.80
2018-07-12T03:52:45.502Z,17.90
2018-07-12T03:53:45.378Z,18.40
2018-07-12T03:54:45.284Z,18.30
2018-07-12T03:55:45.192Z,18.30
2018-07-12T03:56:45.107Z,18.00
2018-07-12T03:57:45.135Z,18.30
2018-07-12T03:58:44.923Z,20.40
2018-07-12T03:59:44.826Z,20.40
2018-07-12T04:00:44.733Z,20.70
2018-07-12T04:01:45.167Z,22.30
2018-07-12T04:02:44.584Z,21.10
2018-07-12T04:03:44.457Z,20.50
2018-07-12T04:04:44.462Z,21.20
2018-07-12T04:05:44.275Z,19.90
2018-07-12T04:06:44.184Z,19.80
2018-07-12T04:07:44.123Z,20.60
2018-07-12T04:08:43.999Z,22.00
2018-07-12T04:09:43.909Z,20.30
2018-07-12T04:10:43.814Z,19.10
2018-07-12T04:11:43.823Z,19.30
2018-07-12T04:12:43.667Z,21.00
2018-07-12T04:13:43.541Z,20.40
2018-07-12T04:14:43.450Z,21.00
2018-07-12T04:15:43.357Z,21.10
2018-07-12T04:16:43.268Z,20.40
2018-07-12T04:17:43.208Z,20.60
2018-07-12T04:18:43.172Z,20.70
2018-07-12T04:19:42.991Z,20.50
2018-07-12T04:20:42.897Z,21.00
2018-07-12T04:21:42.806Z,21.90
2018-07-12T04:22:42.748Z,21.10
2018-07-12T04:23:42.624Z,21.70
2018-07-12T04:24:42.531Z,22.70
2018-07-12T04:25:42.439Z,21.50
2018-07-12T04:26:42.349Z,22.50
2018-07-12T04:27:42.289Z,21.50
2018-07-12T04:28:42.172Z,21.50
2018-07-12T04:29:42.076Z,22.60
2018-07-12T04:30:41.985Z,22.10
2018-07-12T04:31:41.893Z,21.80
2018-07-12T04:32:41.838Z,23.80
2018-07-12T04:33:41.710Z,25.10
2018-07-12T04:34:41.661Z,23.10
2018-07-12T04:35:41.526Z,25.60
2018-07-12T04:36:41.437Z,24.30
2018-07-12T04:37:41.443Z,27.20
2018-07-12T04:38:41.256Z,27.50
2018-07-12T04:39:41.162Z,26.70
2018-07-12T04:40:41.072Z,24.70
2018-07-12T04:41:40.984Z,25.90
2018-07-12T04:42:40.920Z,25.90
2018-07-12T04:43:40.801Z,24.30
2018-07-12T04:44:40.706Z,25.50
2018-07-12T04:45:40.616Z,25.40
2018-07-12T04:46:40.527Z,25.50
2018-07-12T04:47:40.469Z,26.50
2018-07-12T04:48:40.344Z,25.80
2018-07-12T04:49:40.251Z,26.80
2018-07-12T04:50:40.164Z,27.40
2018-07-12T04:51:40.070Z,26.40
2018-07-12T04:52:40.011Z,27.20
2018-07-12T04:53:39.889Z,27.20
2018-07-12T04:54:39.798Z,27.90
2018-07-12T04:55:39.710Z,29.50
2018-07-12T04:56:39.619Z,29.20
2018-07-12T04:57:39.554Z,27.20
2018-07-12T04:58:39.438Z,28.00
2018-07-12T04:59:39.343Z,27.00
2018-07-12T05:00:39.256Z,28.90
2018-07-12T05:01:39.161Z,26.40
2018-07-12T05:02:39.106Z,27.50
2018-07-12T05:03:38.982Z,27.80
2018-07-12T05:04:38.890Z,27.80
2018-07-12T05:05:38.801Z,27.50
2018-07-12T05:06:38.715Z,28.10
2018-07-12T05:07:38.650Z,28.90
2018-07-12T05:08:38.535Z,28.90
2018-07-12T05:09:38.439Z,29.10
2018-07-12T05:10:38.349Z,27.80
2018-07-12T05:11:38.261Z,29.20
2018-07-12T05:12:38.198Z,28.20
2018-07-12T05:13:38.075Z,28.10
2018-07-12T05:14:37.984Z,28.50
2018-07-12T05:15:37.894Z,29.50
2018-07-12T05:16:37.804Z,28.90
2018-07-12T05:17:37.718Z,28.30
2018-07-12T05:18:37.653Z,28.50
2018-07-12T05:19:37.531Z,29.80
2018-07-12T05:20:37.442Z,30.50
2018-07-12T05:21:37.351Z,30.20
2018-07-12T05:22:37.261Z,29.20
2018-07-12T05:23:37.203Z,30.30
2018-07-12T05:24:37.082Z,29.60
2018-07-12T05:25:36.990Z,29.00
2018-07-12T05:26:36.898Z,28.30
2018-07-12T05:27:36.809Z,29.00
2018-07-12T05:28:36.747Z,28.50
2018-07-12T05:29:36.627Z,29.50
2018-07-12T05:30:36.534Z,29.60
2018-07-12T05:31:36.445Z,29.30
2018-07-12T05:32:36.354Z,28.30
2018-07-12T05:33:36.292Z,28.90
2018-07-12T05:34:36.201Z,28.70
2018-07-12T05:35:36.080Z,28.50
2018-07-12T05:36:35.989Z,28.20
2018-07-12T05:37:35.898Z,28.50
2018-07-12T05:38:35.835Z,28.30
2018-07-12T05:39:35.717Z,29.00
2018-07-12T05:40:35.629Z,28.60
2018-07-12T05:41:35.627Z,27.90
2018-07-12T05:42:35.445Z,29.20
2018-07-12T05:43:35.385Z,27.60
2018-07-12T05:44:35.263Z,27.90
2018-07-12T05:45:35.173Z,28.40
2018-07-12T05:46:35.122Z,26.80
2018-07-12T05:47:34.988Z,27.50
2018-07-12T05:48:34.931Z,27.70
2018-07-12T05:49:34.810Z,26.90
2018-07-12T05:50:34.720Z,26.70
2018-07-12T05:51:34.627Z,26.90
2018-07-12T05:52:34.537Z,28.50
2018-07-12T05:53:34.480Z,26.90
2018-07-12T05:54:34.355Z,26.60
2018-07-12T05:55:34.366Z,26.80
2018-07-12T05:56:34.177Z,26.20
2018-07-12T05:57:34.185Z,25.60
2018-07-12T05:58:34.038Z,25.80
2018-07-12T05:59:33.904Z,26.60
2018-07-12T06:00:33.813Z,25.50
2018-07-12T06:01:33.723Z,25.70
2018-07-12T06:02:33.725Z,26.60
2018-07-12T06:03:33.573Z,26.20
2018-07-12T06:04:33.457Z,26.00
2018-07-12T06:05:33.359Z,26.40
2018-07-12T06:06:33.271Z,26.60
2018-07-12T06:07:33.178Z,26.10
2018-07-12T06:08:33.117Z,25.20
2018-07-12T06:09:33.091Z,24.90
2018-07-12T06:10:32.911Z,25.60
2018-07-12T06:11:32.822Z,25.30
2018-07-12T06:12:32.729Z,26.40
2018-07-12T06:13:32.670Z,25.90
2018-07-12T06:14:32.550Z,25.50
2018-07-12T06:15:32.461Z,25.00
2018-07-12T06:16:32.459Z,26.20
2018-07-12T06:17:32.280Z,25.30
2018-07-12T06:18:32.251Z,24.30
2018-07-12T06:19:32.102Z,23.90
2018-07-12T06:20:32.013Z,23.70
2018-07-12T06:21:31.920Z,22.90
2018-07-12T06:22:31.835Z,23.60
2018-07-12T06:23:31.862Z,23.00
2018-07-12T06:24:31.660Z,24.80
2018-07-12T06:25:31.561Z,24.00
2018-07-12T06:26:31.472Z,23.40
2018-07-12T06:27:31.389Z,23.50
2018-07-12T06:28:31.322Z,26.80
2018-07-12T06:29:31.199Z,24.20
2018-07-12T06:30:31.199Z,23.70
2018-07-12T06:31:31.027Z,23.50
2018-07-12T06:32:30.931Z,23.50
2018-07-12T06:33:30.870Z,23.00
2018-07-12T06:34:30.749Z,22.60
2018-07-12T06:35:30.659Z,23.30
2018-07-12T06:36:30.569Z,24.00
2018-07-12T06:37:30.578Z,24.90
2018-07-12T06:38:30.421Z,24.10
2018-07-12T06:39:30.301Z,25.00
2018-07-12T06:40:30.210Z,24.30
2018-07-12T06:41:30.122Z,24.40
2018-07-12T06:42:30.041Z,24.30
2018-07-12T06:43:29.975Z,24.50
2018-07-12T06:44:29.957Z,25.10
2018-07-12T06:45:29.771Z,25.40
2018-07-12T06:46:29.673Z,25.30
2018-07-12T06:47:29.584Z,26.50
2018-07-12T06:48:29.531Z,25.20
2018-07-12T06:49:29.408Z,25.90
2018-07-12T06:50:29.317Z,25.70
2018-07-12T06:51:29.314Z,24.60
2018-07-12T06:52:29.134Z,25.60
2018-07-12T06:53:29.046Z,25.20
2018-07-12T06:54:28.985Z,24.60
2018-07-12T06:55:28.865Z,24.50
2018-07-12T06:56:28.779Z,24.10
2018-07-12T06:57:28.686Z,23.40
2018-07-12T06:58:28.669Z,23.10
2018-07-12T06:59:28.536Z,22.30
2018-07-12T07:00:28.418Z,23.50
2018-07-12T07:01:28.329Z,22.30
2018-07-12T07:02:28.249Z,22.20
2018-07-12T07:03:28.153Z,22.20
2018-07-12T07:04:28.091Z,22.00
2018-07-12T07:05:28.060Z,22.30
2018-07-12T07:06:27.879Z,22.00
2018-07-12T07:07:27.793Z,21.30
2018-07-12T07:08:27.702Z,21.60
2018-07-12T07:09:27.643Z,21.90
2018-07-12T07:10:27.524Z,23.80
2018-07-12T07:11:27.437Z,22.30
2018-07-12T07:12:27.346Z,21.80
2018-07-12T07:13:27.257Z,20.80
2018-07-12T07:14:27.201Z,21.30
2018-07-12T07:15:27.077Z,21.60
2018-07-12T07:16:26.989Z,20.80
2018-07-12T07:17:26.900Z,20.40
2018-07-12T07:18:26.809Z,20.00
2018-07-12T07:19:26.748Z,19.90
2018-07-12T07:20:26.634Z,19.90
2018-07-12T07:21:26.543Z,20.00
2018-07-12T07:22:26.452Z,19.90
2018-07-12T07:23:26.363Z,19.40
2018-07-12T07:24:26.307Z,20.50
2018-07-12T07:25:26.187Z,20.30
2018-07-12T07:26:26.098Z,20.30
2018-07-12T07:27:26.008Z,18.80
2018-07-12T07:28:25.916Z,19.50
2018-07-12T07:29:25.866Z,18.60
2018-07-12T07:30:25.751Z,19.20
2018-07-12T07:31:25.653Z,18.30
2018-07-12T07:32:25.575Z,19.50
2018-07-12T07:33:25.521Z,19.20
2018-07-12T07:34:25.425Z,18.80
2018-07-12T07:35:25.295Z,18.50
2018-07-12T07:36:25.208Z,18.20
2018-07-12T07:37:25.118Z,17.70
2018-07-12T07:38:25.029Z,17.50
2018-07-12T07:39:24.976Z,16.70
2018-07-12T07:40:24.855Z,16.30
2018-07-12T07:41:24.769Z,15.80
2018-07-12T07:42:24.675Z,16.20
2018-07-12T07:43:24.589Z,15.80
2018-07-12T07:44:24.536Z,16.00
2018-07-12T07:45:24.411Z,15.70
2018-07-12T07:46:24.325Z,14.90
2018-07-12T07:47:24.237Z,15.50
2018-07-12T07:48:24.149Z,15.20
2018-07-12T07:49:24.133Z,16.80
2018-07-12T07:50:23.973Z,16.50
2018-07-12T07:51:23.898Z,16.40
2018-07-12T07:52:23.799Z,15.50
2018-07-12T07:53:23.711Z,16.10
2018-07-12T07:54:23.653Z,16.20
2018-07-12T07:55:23.540Z,16.70
2018-07-12T07:56:23.448Z,15.90
2018-07-12T07:57:23.363Z,15.80
2018-07-12T07:58:23.272Z,15.90
2018-07-12T07:59:23.217Z,15.90
2018-07-12T08:00:23.098Z,15.90
2018-07-12T08:01:23.012Z,16.00
2018-07-12T08:02:22.923Z,16.20
2018-07-12T08:03:22.852Z,15.70
2018-07-12T08:04:22.782Z,16.50
2018-07-12T08:05:22.661Z,16.50
2018-07-12T08:06:22.570Z,16.20
2018-07-12T08:07:22.485Z,16.90
2018-07-12T08:08:22.399Z,17.30
2018-07-12T08:09:22.364Z,17.20
2018-07-12T08:10:22.221Z,17.40
2018-07-12T08:11:22.131Z,19.20
2018-07-12T08:12:22.047Z,18.10
2018-07-12T08:13:21.959Z,19.10
2018-07-12T08:14:21.901Z,18.50
2018-07-12T08:15:21.788Z,18.30
2018-07-12T08:16:21.733Z,18.20
2018-07-12T08:17:21.605Z,17.90
2018-07-12T08:18:21.518Z,18.70
2018-07-12T08:19:21.431Z,17.40
2018-07-12T08:20:21.371Z,17.80
2018-07-12T08:21:21.256Z,16.80
2018-07-12T08:22:21.163Z,17.20
2018-07-12T08:23:21.075Z,15.40
2018-07-12T08:24:20.991Z,16.10
2018-07-12T08:25:20.935Z,15.60
2018-07-12T08:26:20.811Z,14.40
2018-07-12T08:27:20.726Z,14.60
2018-07-12T08:28:20.635Z,14.80
2018-07-12T08:29:20.550Z,13.40
2018-07-12T08:30:20.489Z,12.60
2018-07-12T08:31:20.490Z,13.30
2018-07-12T08:32:20.285Z,12.40
2018-07-12T08:33:20.227Z,10.80
2018-07-12T08:34:20.127Z,10.20
2018-07-12T08:35:20.050Z,11.20
2018-07-12T08:36:20.316Z,11.20
2018-07-12T08:37:19.848Z,10.20
2018-07-12T08:38:19.758Z,9.90
2018-07-12T08:39:19.670Z,9.90
2018-07-12T08:40:19.613Z,9.50
2018-07-12T08:41:19.503Z,9.10
2018-07-12T08:42:19.441Z,9.30
2018-07-12T08:43:19.409Z,9.60
2018-07-12T08:44:19.241Z,9.10
2018-07-12T08:45:19.178Z,9.30
2018-07-12T08:46:19.162Z,9.50
2018-07-12T08:47:18.973Z,9.40
2018-07-12T08:48:18.906Z,9.20
2018-07-12T08:49:18.797Z,14.80
2018-07-12T08:50:18.840Z,10.70
2018-07-12T08:51:18.621Z,10.80
2018-07-12T08:52:18.536Z,10.30
2018-07-12T08:53:18.447Z,11.40
2018-07-12T08:54:18.371Z,10.50
2018-07-12T08:55:18.304Z,10.70
2018-07-12T08:56:18.187Z,10.20
2018-07-12T08:57:18.192Z,10.60
2018-07-12T08:58:18.010Z,10.00
2018-07-12T08:59:17.921Z,10.10
2018-07-12T09:00:17.870Z,9.80
2018-07-12T09:01:17.750Z,8.80
2018-07-12T09:02:17.663Z,8.60
2018-07-12T09:03:17.575Z,7.50
2018-07-12T09:04:17.592Z,7.00
2018-07-12T09:05:17.430Z,7.30
2018-07-12T09:06:17.312Z,7.40
2018-07-12T09:07:17.225Z,7.00
2018-07-12T09:08:17.138Z,6.70
2018-07-12T09:09:17.053Z,5.20
2018-07-12T09:10:16.994Z,5.60
2018-07-12T09:11:16.963Z,5.50
2018-07-12T09:12:16.791Z,5.60
2018-07-12T09:13:16.703Z,5.50
2018-07-12T09:14:16.616Z,5.00
2018-07-12T09:15:16.563Z,5.90
2018-07-12T09:16:16.451Z,6.10
2018-07-12T09:17:16.362Z,6.20
2018-07-12T09:18:16.385Z,6.20
2018-07-12T09:19:16.189Z,5.60
2018-07-12T09:20:16.135Z,5.90
2018-07-12T09:21:16.014Z,6.30
2018-07-12T09:22:15.928Z,5.80
2018-07-12T09:23:15.874Z,6.20
2018-07-12T09:24:15.765Z,5.20
2018-07-12T09:25:15.809Z,5.80
2018-07-12T09:26:15.581Z,4.80
2018-07-12T09:27:15.497Z,4.80
2018-07-12T09:28:15.411Z,4.40
2018-07-12T09:29:15.378Z,4.80
2018-07-12T09:30:15.268Z,4.50
2018-07-12T09:31:15.150Z,4.30
2018-07-12T09:32:15.162Z,5.00
2018-07-12T09:33:14.981Z,4.70
2018-07-12T09:34:14.895Z,4.90
2018-07-12T09:35:14.841Z,6.30
2018-07-12T09:36:14.722Z,4.70
2018-07-12T09:37:14.640Z,4.60
2018-07-12T09:38:14.553Z,4.70
2018-07-12T09:39:14.465Z,4.90
2018-07-12T09:40:14.410Z,5.30
2018-07-12T09:41:14.294Z,5.30
2018-07-12T09:42:14.210Z,5.80
2018-07-12T09:43:14.122Z,5.20
2018-07-12T09:44:14.034Z,5.30
2018-07-12T09:45:13.984Z,5.40
2018-07-12T09:46:13.866Z,5.10
2018-07-12T09:47:13.780Z,5.50
2018-07-12T09:48:13.717Z,5.20
2018-07-12T09:49:13.697Z,5.20
2018-07-12T09:50:13.568Z,4.80
2018-07-12T09:51:13.433Z,4.80
2018-07-12T09:52:13.348Z,4.70
2018-07-12T09:53:13.263Z,5.10
2018-07-12T09:54:13.176Z,5.30
2018-07-12T09:55:13.092Z,5.50
2018-07-12T09:56:13.084Z,6.90
2018-07-12T09:57:12.921Z,5.90
2018-07-12T09:58:12.840Z,8.30
2018-07-12T09:59:12.748Z,4.70
2018-07-12T10:00:12.668Z,10.30
2018-07-12T10:01:12.684Z,7.40
2018-07-12T10:02:12.493Z,5.60
2018-07-12T10:03:12.404Z,5.40
2018-07-12T10:04:12.321Z,6.30
2018-07-12T10:05:12.240Z,9.10
2018-07-12T10:06:12.180Z,6.30
2018-07-12T10:07:12.065Z,5.10
2018-07-12T10:08:11.984Z,5.80
2018-07-12T10:09:11.897Z,5.10
2018-07-12T10:10:11.813Z,5.10
2018-07-12T10:11:11.760Z,5.10
2018-07-12T10:12:11.654Z,5.00
2018-07-12T10:13:11.557Z,5.40
2018-07-12T10:14:11.473Z,4.70
2018-07-12T10:15:11.393Z,4.80
2018-07-12T10:16:11.334Z,4.90
2018-07-12T10:17:11.222Z,5.20
2018-07-12T10:18:11.135Z,4.80
2018-07-12T10:19:11.047Z,5.80
2018-07-12T10:20:10.969Z,6.80
2018-07-12T10:21:10.913Z,5.30
2018-07-12T10:22:10.796Z,5.00
2018-07-12T10:23:10.712Z,5.40
2018-07-12T10:24:10.626Z,6.90
2018-07-12T10:25:10.541Z,7.20
2018-07-12T10:26:10.487Z,4.00
2018-07-12T10:27:10.375Z,4.20
2018-07-12T10:28:10.287Z,3.70
2018-07-12T10:29:10.202Z,3.50
2018-07-12T10:30:10.117Z,3.80
2018-07-12T10:31:10.070Z,4.00
2018-07-12T10:32:09.947Z,4.60
2018-07-12T10:33:09.862Z,4.80
2018-07-12T10:34:09.779Z,5.00
2018-07-12T10:35:09.689Z,4.30
2018-07-12T10:36:09.638Z,4.50
2018-07-12T10:37:09.523Z,4.50
2018-07-12T10:38:09.432Z,4.90
2018-07-12T10:39:09.347Z,4.40
2018-07-12T10:40:09.272Z,6.00
2018-07-12T10:41:09.215Z,4.00
2018-07-12T10:42:09.094Z,5.70
2018-07-12T10:43:09.010Z,4.00
2018-07-12T10:44:08.920Z,4.00
2018-07-12T10:45:08.838Z,3.60
2018-07-12T10:46:08.780Z,3.60
2018-07-12T10:47:08.662Z,3.70
2018-07-12T10:48:08.579Z,4.10
2018-07-12T10:49:08.493Z,4.00
2018-07-12T10:50:08.411Z,4.60
2018-07-12T10:51:08.355Z,4.50
2018-07-12T10:52:08.236Z,5.70
2018-07-12T10:53:08.150Z,3.90
2018-07-12T10:54:08.064Z,4.80
2018-07-12T10:55:08.083Z,5.20
2018-07-12T10:56:07.923Z,6.10
2018-07-12T10:57:07.805Z,5.20
2018-07-12T10:58:07.716Z,4.60
2018-07-12T10:59:07.633Z,4.40
2018-07-12T11:00:07.543Z,4.80
2018-07-12T11:01:07.494Z,4.30
2018-07-12T11:02:07.462Z,5.20
2018-07-12T11:03:07.285Z,4.20
2018-07-12T11:04:07.197Z,4.50
2018-07-12T11:05:07.123Z,8.00
2018-07-12T11:06:07.061Z,5.40
2018-07-12T11:07:06.938Z,4.60
2018-07-12T11:08:06.851Z,4.80
2018-07-12T11:09:06.874Z,5.30
2018-07-12T11:10:06.675Z,6.30
2018-07-12T11:11:08.047Z,4.70
2018-07-12T11:12:06.505Z,4.40
2018-07-12T11:13:06.414Z,4.00
2018-07-12T11:14:06.326Z,4.10
2018-07-12T11:15:06.239Z,5.10
2018-07-12T11:16:06.245Z,3.90
2018-07-12T11:17:06.097Z,4.70
2018-07-12T11:18:05.996Z,5.30
2018-07-12T11:19:05.887Z,4.70
2018-07-12T11:20:05.806Z,5.20
2018-07-12T11:21:05.729Z,5.00
2018-07-12T11:22:05.656Z,4.30
2018-07-12T11:23:05.632Z,4.20
2018-07-12T11:24:05.454Z,4.40
2018-07-12T11:25:05.368Z,4.30
2018-07-12T11:26:05.280Z,4.00
2018-07-12T11:27:05.221Z,4.20
2018-07-12T11:28:05.152Z,5.60
2018-07-12T11:29:05.017Z,5.40
2018-07-12T11:30:05.025Z,5.70
2018-07-12T11:31:04.846Z,6.50
2018-07-12T11:32:04.789Z,5.40
2018-07-12T11:33:04.672Z,6.80
2018-07-12T11:34:04.580Z,6.00
2018-07-12T11:35:04.497Z,6.10
2018-07-12T11:36:04.409Z,5.80
2018-07-12T11:37:04.516Z,7.50
2018-07-12T11:38:04.233Z,6.50
2018-07-12T11:39:04.149Z,5.80
2018-07-12T11:40:04.059Z,9.20
2018-07-12T11:41:03.974Z,6.50
2018-07-12T11:42:03.917Z,5.70
2018-07-12T11:43:03.804Z,5.90
2018-07-12T11:44:03.808Z,6.10
2018-07-12T11:45:03.630Z,7.40
2018-07-12T11:46:03.539Z,5.20
2018-07-12T11:47:03.484Z,5.80
2018-07-12T11:48:03.371Z,6.10
2018-07-12T11:49:03.277Z,5.50
2018-07-12T11:50:03.190Z,8.70
2018-07-12T11:51:03.205Z,7.70
2018-07-12T11:52:03.052Z,5.90
2018-07-12T11:53:02.935Z,6.30
2018-07-12T11:54:02.846Z,6.20
2018-07-12T11:55:02.761Z,6.40
2018-07-12T11:56:02.673Z,6.10
2018-07-12T11:57:02.620Z,6.80
2018-07-12T11:58:02.592Z,7.20
2018-07-12T11:59:02.415Z,5.70
2018-07-12T12:00:02.329Z,7.20
2018-07-12T12:01:02.244Z,6.20
2018-07-12T12:02:02.247Z,6.50
2018-07-12T12:03:02.070Z,6.00
2018-07-12T12:04:01.981Z,5.80
2018-07-12T12:05:01.984Z,5.70
2018-07-12T12:06:01.811Z,7.80
2018-07-12T12:07:01.774Z,7.20
2018-07-12T12:08:01.636Z,5.80
2018-07-12T12:09:01.553Z,6.30
2018-07-12T12:10:01.463Z,6.70
2018-07-12T12:11:01.388Z,6.10
2018-07-12T12:12:01.395Z,15.00
2018-07-12T12:13:01.291Z,8.40
2018-07-12T12:14:01.121Z,6.00
2018-07-12T12:15:01.034Z,5.70
2018-07-12T12:16:00.949Z,5.80
2018-07-12T12:17:00.891Z,6.00
2018-07-12T12:18:00.776Z,5.90
2018-07-12T12:19:00.783Z,5.60
2018-07-12T12:20:00.607Z,6.20
2018-07-12T12:21:00.519Z,5.70
2018-07-12T12:22:00.464Z,5.50
2018-07-12T12:23:00.358Z,4.80
2018-07-12T12:24:00.262Z,5.40
2018-07-12T12:25:00.174Z,5.90
2018-07-12T12:26:00.095Z,6.00
2018-07-12T12:27:00.035Z,7.60
2018-07-12T12:27:59.918Z,5.80
2018-07-12T12:28:59.835Z,6.20
2018-07-12T12:29:59.748Z,6.00
2018-07-12T12:30:59.664Z,7.30
2018-07-12T12:31:59.610Z,5.70
2018-07-12T12:32:59.490Z,5.10
2018-07-12T12:33:59.407Z,9.30
2018-07-12T12:34:59.334Z,5.40
2018-07-12T12:35:59.234Z,5.10
2018-07-12T12:36:59.182Z,7.40
2018-07-12T12:37:59.065Z,5.20
2018-07-12T12:38:58.980Z,5.20
2018-07-12T12:39:58.896Z,4.80
2018-07-12T12:40:58.807Z,5.50
2018-07-12T12:41:58.782Z,6.20
2018-07-12T12:42:58.636Z,4.50
2018-07-12T12:43:58.555Z,4.30
2018-07-12T12:44:58.469Z,4.50
2018-07-12T12:45:58.386Z,4.90
2018-07-12T12:46:58.301Z,5.10
2018-07-12T12:47:58.246Z,5.10
2018-07-12T12:48:58.132Z,5.00
2018-07-12T12:49:58.046Z,4.90
2018-07-12T12:50:58.023Z,4.90
2018-07-12T12:51:57.877Z,4.90
2018-07-12T12:52:57.826Z,4.60
2018-07-12T12:53:57.706Z,4.80
2018-07-12T12:54:57.626Z,4.50
2018-07-12T12:55:57.539Z,4.30
2018-07-12T12:56:57.454Z,4.40
2018-07-12T12:57:57.397Z,4.70
2018-07-12T12:58:57.284Z,4.10
2018-07-12T12:59:57.204Z,4.60
2018-07-12T13:00:57.115Z,4.20